Aviation Digital Data Service (ADDS)

Output produced by METARs form (1427 UTC 10 July 2020)
found at http://www.aviationweather.gov/metar/data/
 
KMGM 101353Z 27006KT 10SM CLR 29/24 A2999 RMK AO2 SLP154 T02890239 $
KMGM 101140Z 1012/1112 00000KT 6SM BR FEW005 
     TEMPO 1012/1014 4SM BR BKN004 
     FM101500 30005KT P6SM SCT035 
     FM101800 29010KT P6SM SCT045 
     FM110100 28005KT P6SM SKC